sensor_id;sensor_type;location;lat;lon;timestamp;temperature;humidity
27848;DHT22;15212;48.830;8.730;2022-07-19T00:00:50;19.80;76.30
27848;DHT22;15212;48.830;8.730;2022-07-19T00:03:18;19.80;76.70
27848;DHT22;15212;48.830;8.730;2022-07-19T00:05:47;19.80;75.80
27848;DHT22;15212;48.830;8.730;2022-07-19T00:08:16;19.90;75.30
27848;DHT22;15212;48.830;8.730;2022-07-19T00:10:44;19.90;76.20
27848;DHT22;15212;48.830;8.730;2022-07-19T00:13:12;20.00;74.20
27848;DHT22;15212;48.830;8.730;2022-07-19T00:15:41;20.20;74.50
27848;DHT22;15212;48.830;8.730;2022-07-19T00:18:10;20.20;74.50
27848;DHT22;15212;48.830;8.730;2022-07-19T00:20:38;20.30;74.10
27848;DHT22;15212;48.830;8.730;2022-07-19T00:23:06;20.30;74.30
27848;DHT22;15212;48.830;8.730;2022-07-19T00:25:35;20.30;74.20
27848;DHT22;15212;48.830;8.730;2022-07-19T00:28:03;20.40;73.90
27848;DHT22;15212;48.830;8.730;2022-07-19T00:30:32;20.40;73.30
27848;DHT22;15212;48.830;8.730;2022-07-19T00:33:00;20.40;74.00
27848;DHT22;15212;48.830;8.730;2022-07-19T00:35:30;20.50;73.80
27848;DHT22;15212;48.830;8.730;2022-07-19T00:38:09;20.50;74.10
27848;DHT22;15212;48.830;8.730;2022-07-19T00:40:34;20.40;74.40
27848;DHT22;15212;48.830;8.730;2022-07-19T00:43:03;20.40;74.20
27848;DHT22;15212;48.830;8.730;2022-07-19T00:45:32;20.40;73.70
27848;DHT22;15212;48.830;8.730;2022-07-19T00:48:02;20.40;74.40
27848;DHT22;15212;48.830;8.730;2022-07-19T00:50:32;20.40;73.80
27848;DHT22;15212;48.830;8.730;2022-07-19T00:53:02;20.50;73.90
27848;DHT22;15212;48.830;8.730;2022-07-19T00:55:34;20.50;73.50
27848;DHT22;15212;48.830;8.730;2022-07-19T00:58:04;20.60;73.70
27848;DHT22;15212;48.830;8.730;2022-07-19T01:00:33;20.60;73.70
27848;DHT22;15212;48.830;8.730;2022-07-19T01:03:02;20.60;73.60
27848;DHT22;15212;48.830;8.730;2022-07-19T01:05:30;20.60;73.60
27848;DHT22;15212;48.830;8.730;2022-07-19T01:07:59;20.70;73.30
27848;DHT22;15212;48.830;8.730;2022-07-19T01:10:28;20.70;73.50
27848;DHT22;15212;48.830;8.730;2022-07-19T01:12:56;20.80;73.00
27848;DHT22;15212;48.830;8.730;2022-07-19T01:15:26;20.80;73.80
27848;DHT22;15212;48.830;8.730;2022-07-19T01:17:54;20.80;73.30
27848;DHT22;15212;48.830;8.730;2022-07-19T01:20:24;20.80;73.30
27848;DHT22;15212;48.830;8.730;2022-07-19T01:22:53;20.80;73.10
27848;DHT22;15212;48.830;8.730;2022-07-19T01:25:23;20.80;73.20
27848;DHT22;15212;48.830;8.730;2022-07-19T01:27:52;20.70;73.20
27848;DHT22;15212;48.830;8.730;2022-07-19T01:30:23;20.70;73.60
27848;DHT22;15212;48.830;8.730;2022-07-19T01:32:53;20.60;73.70
27848;DHT22;15212;48.830;8.730;2022-07-19T01:35:22;20.60;74.00
27848;DHT22;15212;48.830;8.730;2022-07-19T01:37:51;20.50;74.30
27848;DHT22;15212;48.830;8.730;2022-07-19T01:40:20;20.50;74.00
27848;DHT22;15212;48.830;8.730;2022-07-19T01:42:49;20.60;74.20
27848;DHT22;15212;48.830;8.730;2022-07-19T01:45:19;20.60;74.00
27848;DHT22;15212;48.830;8.730;2022-07-19T01:47:48;20.60;74.50
27848;DHT22;15212;48.830;8.730;2022-07-19T01:50:17;20.60;74.30
27848;DHT22;15212;48.830;8.730;2022-07-19T01:52:46;20.60;74.30
27848;DHT22;15212;48.830;8.730;2022-07-19T01:55:14;20.60;74.60
27848;DHT22;15212;48.830;8.730;2022-07-19T01:57:43;20.60;74.30
27848;DHT22;15212;48.830;8.730;2022-07-19T02:00:12;20.60;75.10
27848;DHT22;15212;48.830;8.730;2022-07-19T02:02:40;20.50;74.50
27848;DHT22;15212;48.830;8.730;2022-07-19T02:05:09;20.50;74.90
27848;DHT22;15212;48.830;8.730;2022-07-19T02:07:38;20.50;75.20
27848;DHT22;15212;48.830;8.730;2022-07-19T02:10:07;20.40;75.30
27848;DHT22;15212;48.830;8.730;2022-07-19T02:12:37;20.40;75.30
27848;DHT22;15212;48.830;8.730;2022-07-19T02:15:06;20.40;75.20
27848;DHT22;15212;48.830;8.730;2022-07-19T02:17:35;20.40;75.60
27848;DHT22;15212;48.830;8.730;2022-07-19T02:20:04;20.40;75.20
27848;DHT22;15212;48.830;8.730;2022-07-19T02:22:34;20.40;75.50
27848;DHT22;15212;48.830;8.730;2022-07-19T02:25:03;20.40;75.80
27848;DHT22;15212;48.830;8.730;2022-07-19T02:27:31;20.30;76.00
27848;DHT22;15212;48.830;8.730;2022-07-19T02:30:00;20.20;76.60
27848;DHT22;15212;48.830;8.730;2022-07-19T02:32:28;20.20;76.60
27848;DHT22;15212;48.830;8.730;2022-07-19T02:34:56;20.10;77.00
27848;DHT22;15212;48.830;8.730;2022-07-19T02:37:25;19.90;77.70
27848;DHT22;15212;48.830;8.730;2022-07-19T02:39:53;19.80;77.80
27848;DHT22;15212;48.830;8.730;2022-07-19T02:42:22;19.80;78.30
27848;DHT22;15212;48.830;8.730;2022-07-19T02:44:50;19.70;78.20
27848;DHT22;15212;48.830;8.730;2022-07-19T02:47:18;19.70;78.20
27848;DHT22;15212;48.830;8.730;2022-07-19T02:49:47;19.60;78.20
27848;DHT22;15212;48.830;8.730;2022-07-19T02:52:15;19.70;78.10
27848;DHT22;15212;48.830;8.730;2022-07-19T02:54:44;19.70;77.90
27848;DHT22;15212;48.830;8.730;2022-07-19T02:57:12;19.80;77.80
27848;DHT22;15212;48.830;8.730;2022-07-19T02:59:41;19.80;77.50
27848;DHT22;15212;48.830;8.730;2022-07-19T03:02:09;19.90;77.40
27848;DHT22;15212;48.830;8.730;2022-07-19T03:04:37;20.00;77.30
27848;DHT22;15212;48.830;8.730;2022-07-19T03:07:06;20.00;77.30
27848;DHT22;15212;48.830;8.730;2022-07-19T03:09:34;20.00;77.10
27848;DHT22;15212;48.830;8.730;2022-07-19T03:12:03;20.00;77.10
27848;DHT22;15212;48.830;8.730;2022-07-19T03:14:31;20.00;77.30
27848;DHT22;15212;48.830;8.730;2022-07-19T03:17:00;20.00;77.30
27848;DHT22;15212;48.830;8.730;2022-07-19T03:19:28;20.00;77.40
27848;DHT22;15212;48.830;8.730;2022-07-19T03:21:56;20.00;77.30
27848;DHT22;15212;48.830;8.730;2022-07-19T03:24:25;20.00;77.00
27848;DHT22;15212;48.830;8.730;2022-07-19T03:26:53;20.10;77.00
27848;DHT22;15212;48.830;8.730;2022-07-19T03:29:22;20.10;77.30
27848;DHT22;15212;48.830;8.730;2022-07-19T03:31:51;20.20;76.90
27848;DHT22;15212;48.830;8.730;2022-07-19T03:34:19;20.30;76.30
27848;DHT22;15212;48.830;8.730;2022-07-19T03:36:47;20.30;75.70
27848;DHT22;15212;48.830;8.730;2022-07-19T03:39:16;20.50;75.40
27848;DHT22;15212;48.830;8.730;2022-07-19T03:41:44;20.60;75.20
27848;DHT22;15212;48.830;8.730;2022-07-19T03:44:13;20.60;75.10
27848;DHT22;15212;48.830;8.730;2022-07-19T03:46:41;20.70;74.90
27848;DHT22;15212;48.830;8.730;2022-07-19T03:49:10;20.70;75.00
27848;DHT22;15212;48.830;8.730;2022-07-19T03:51:38;20.80;74.90
27848;DHT22;15212;48.830;8.730;2022-07-19T03:54:07;20.80;75.00
27848;DHT22;15212;48.830;8.730;2022-07-19T03:56:35;20.80;74.50
27848;DHT22;15212;48.830;8.730;2022-07-19T03:59:03;20.80;74.80
27848;DHT22;15212;48.830;8.730;2022-07-19T04:01:32;20.80;75.20
27848;DHT22;15212;48.830;8.730;2022-07-19T04:04:00;20.80;74.90
27848;DHT22;15212;48.830;8.730;2022-07-19T04:06:28;20.80;74.70
27848;DHT22;15212;48.830;8.730;2022-07-19T04:08:57;20.80;75.40
27848;DHT22;15212;48.830;8.730;2022-07-19T04:11:25;20.80;74.80
27848;DHT22;15212;48.830;8.730;2022-07-19T04:13:54;20.80;75.20
27848;DHT22;15212;48.830;8.730;2022-07-19T04:16:22;20.80;75.30
27848;DHT22;15212;48.830;8.730;2022-07-19T04:18:50;20.80;74.90
27848;DHT22;15212;48.830;8.730;2022-07-19T04:21:19;20.90;75.30
27848;DHT22;15212;48.830;8.730;2022-07-19T04:23:48;20.90;74.90
27848;DHT22;15212;48.830;8.730;2022-07-19T04:26:16;21.00;74.80
27848;DHT22;15212;48.830;8.730;2022-07-19T04:28:44;21.00;75.60
27848;DHT22;15212;48.830;8.730;2022-07-19T04:31:13;20.90;75.30
27848;DHT22;15212;48.830;8.730;2022-07-19T04:33:43;21.00;75.40
27848;DHT22;15212;48.830;8.730;2022-07-19T04:36:12;20.90;75.90
27848;DHT22;15212;48.830;8.730;2022-07-19T04:38:40;20.90;75.90
27848;DHT22;15212;48.830;8.730;2022-07-19T04:41:09;21.00;75.40
27848;DHT22;15212;48.830;8.730;2022-07-19T04:43:37;21.10;75.50
27848;DHT22;15212;48.830;8.730;2022-07-19T04:46:05;21.10;75.40
27848;DHT22;15212;48.830;8.730;2022-07-19T04:48:34;21.30;75.10
27848;DHT22;15212;48.830;8.730;2022-07-19T04:51:02;21.30;75.00
27848;DHT22;15212;48.830;8.730;2022-07-19T04:53:31;21.40;74.50
27848;DHT22;15212;48.830;8.730;2022-07-19T04:55:59;21.50;74.40
27848;DHT22;15212;48.830;8.730;2022-07-19T04:58:27;21.60;74.90
27848;DHT22;15212;48.830;8.730;2022-07-19T05:00:56;21.60;74.60
27848;DHT22;15212;48.830;8.730;2022-07-19T05:03:24;21.70;74.20
27848;DHT22;15212;48.830;8.730;2022-07-19T05:05:52;21.90;74.20
27848;DHT22;15212;48.830;8.730;2022-07-19T05:08:21;22.00;73.90
27848;DHT22;15212;48.830;8.730;2022-07-19T05:10:49;22.20;74.10
27848;DHT22;15212;48.830;8.730;2022-07-19T05:13:17;22.40;73.50
27848;DHT22;15212;48.830;8.730;2022-07-19T05:15:46;22.70;72.40
27848;DHT22;15212;48.830;8.730;2022-07-19T05:18:14;22.90;73.40
27848;DHT22;15212;48.830;8.730;2022-07-19T05:20:43;23.10;71.50
27848;DHT22;15212;48.830;8.730;2022-07-19T05:23:11;23.10;71.70
27848;DHT22;15212;48.830;8.730;2022-07-19T05:25:40;23.20;72.00
27848;DHT22;15212;48.830;8.730;2022-07-19T05:28:08;23.20;72.20
27848;DHT22;15212;48.830;8.730;2022-07-19T05:30:36;23.30;71.50
27848;DHT22;15212;48.830;8.730;2022-07-19T05:33:05;23.30;71.10
27848;DHT22;15212;48.830;8.730;2022-07-19T05:35:34;23.40;70.80
27848;DHT22;15212;48.830;8.730;2022-07-19T05:38:02;23.40;72.70
27848;DHT22;15212;48.830;8.730;2022-07-19T05:40:30;23.50;71.90
27848;DHT22;15212;48.830;8.730;2022-07-19T05:42:59;23.60;71.10
27848;DHT22;15212;48.830;8.730;2022-07-19T05:45:27;23.60;71.00
27848;DHT22;15212;48.830;8.730;2022-07-19T05:47:55;23.80;70.70
27848;DHT22;15212;48.830;8.730;2022-07-19T05:50:24;23.90;70.40
27848;DHT22;15212;48.830;8.730;2022-07-19T05:52:52;24.10;69.30
27848;DHT22;15212;48.830;8.730;2022-07-19T05:55:21;24.40;69.30
27848;DHT22;15212;48.830;8.730;2022-07-19T05:57:49;24.80;67.60
27848;DHT22;15212;48.830;8.730;2022-07-19T06:00:17;25.50;66.80
27848;DHT22;15212;48.830;8.730;2022-07-19T06:02:46;26.40;65.70
27848;DHT22;15212;48.830;8.730;2022-07-19T06:05:14;27.60;63.20
27848;DHT22;15212;48.830;8.730;2022-07-19T06:07:42;28.80;60.10
27848;DHT22;15212;48.830;8.730;2022-07-19T06:10:11;29.90;59.40
27848;DHT22;15212;48.830;8.730;2022-07-19T06:12:39;31.00;58.10
27848;DHT22;15212;48.830;8.730;2022-07-19T06:15:08;31.90;57.50
27848;DHT22;15212;48.830;8.730;2022-07-19T06:17:37;32.80;56.00
27848;DHT22;15212;48.830;8.730;2022-07-19T06:20:05;33.50;55.20
27848;DHT22;15212;48.830;8.730;2022-07-19T06:22:34;34.00;55.00
27848;DHT22;15212;48.830;8.730;2022-07-19T06:25:03;34.60;54.00
27848;DHT22;15212;48.830;8.730;2022-07-19T06:27:33;35.00;53.50
27848;DHT22;15212;48.830;8.730;2022-07-19T06:30:01;35.30;52.90
27848;DHT22;15212;48.830;8.730;2022-07-19T06:32:30;35.50;52.50
27848;DHT22;15212;48.830;8.730;2022-07-19T06:34:58;35.80;52.10
27848;DHT22;15212;48.830;8.730;2022-07-19T06:37:26;35.70;51.90
27848;DHT22;15212;48.830;8.730;2022-07-19T06:39:55;35.80;52.20
27848;DHT22;15212;48.830;8.730;2022-07-19T06:42:23;36.00;52.30
27848;DHT22;15212;48.830;8.730;2022-07-19T06:44:51;35.90;51.50
27848;DHT22;15212;48.830;8.730;2022-07-19T06:47:20;35.90;52.00
27848;DHT22;15212;48.830;8.730;2022-07-19T06:49:48;35.90;51.80
27848;DHT22;15212;48.830;8.730;2022-07-19T06:52:17;35.80;52.00
27848;DHT22;15212;48.830;8.730;2022-07-19T06:54:45;36.10;52.20
27848;DHT22;15212;48.830;8.730;2022-07-19T06:57:13;36.30;51.60
27848;DHT22;15212;48.830;8.730;2022-07-19T06:59:42;36.20;51.30
27848;DHT22;15212;48.830;8.730;2022-07-19T07:02:10;36.20;51.00
27848;DHT22;15212;48.830;8.730;2022-07-19T07:04:39;36.10;51.20
27848;DHT22;15212;48.830;8.730;2022-07-19T07:07:07;36.30;51.70
27848;DHT22;15212;48.830;8.730;2022-07-19T07:09:35;36.50;50.60
27848;DHT22;15212;48.830;8.730;2022-07-19T07:12:04;36.60;50.70
27848;DHT22;15212;48.830;8.730;2022-07-19T07:14:32;36.50;51.30
27848;DHT22;15212;48.830;8.730;2022-07-19T07:17:01;36.70;50.40
27848;DHT22;15212;48.830;8.730;2022-07-19T07:19:29;36.70;50.50
27848;DHT22;15212;48.830;8.730;2022-07-19T07:21:58;36.40;50.50
27848;DHT22;15212;48.830;8.730;2022-07-19T07:24:28;36.30;51.10
27848;DHT22;15212;48.830;8.730;2022-07-19T07:26:57;36.10;50.90
27848;DHT22;15212;48.830;8.730;2022-07-19T07:29:25;36.00;52.60
27848;DHT22;15212;48.830;8.730;2022-07-19T07:31:54;36.10;51.60
27848;DHT22;15212;48.830;8.730;2022-07-19T07:34:22;36.30;52.10
27848;DHT22;15212;48.830;8.730;2022-07-19T07:36:51;36.60;50.80
27848;DHT22;15212;48.830;8.730;2022-07-19T07:39:19;36.40;50.90
27848;DHT22;15212;48.830;8.730;2022-07-19T07:41:48;36.40;51.20
27848;DHT22;15212;48.830;8.730;2022-07-19T07:44:16;36.30;50.80
27848;DHT22;15212;48.830;8.730;2022-07-19T07:46:45;36.00;50.00
27848;DHT22;15212;48.830;8.730;2022-07-19T07:49:13;35.60;51.30
27848;DHT22;15212;48.830;8.730;2022-07-19T07:51:41;35.30;51.70
27848;DHT22;15212;48.830;8.730;2022-07-19T07:54:10;34.90;52.30
27848;DHT22;15212;48.830;8.730;2022-07-19T07:56:38;34.50;52.20
27848;DHT22;15212;48.830;8.730;2022-07-19T07:59:07;33.80;51.90
27848;DHT22;15212;48.830;8.730;2022-07-19T08:01:35;33.40;53.50
27848;DHT22;15212;48.830;8.730;2022-07-19T08:04:05;33.00;54.40
27848;DHT22;15212;48.830;8.730;2022-07-19T08:06:34;32.60;53.40
27848;DHT22;15212;48.830;8.730;2022-07-19T08:09:03;32.50;53.70
27848;DHT22;15212;48.830;8.730;2022-07-19T08:11:32;32.20;53.40
27848;DHT22;15212;48.830;8.730;2022-07-19T08:14:01;32.20;53.00
27848;DHT22;15212;48.830;8.730;2022-07-19T08:16:29;31.90;53.10
27848;DHT22;15212;48.830;8.730;2022-07-19T08:18:57;31.60;52.80
27848;DHT22;15212;48.830;8.730;2022-07-19T08:21:26;31.40;53.80
27848;DHT22;15212;48.830;8.730;2022-07-19T08:23:54;31.20;53.00
27848;DHT22;15212;48.830;8.730;2022-07-19T08:26:22;31.10;53.50
27848;DHT22;15212;48.830;8.730;2022-07-19T08:28:51;31.00;54.00
27848;DHT22;15212;48.830;8.730;2022-07-19T08:31:19;31.00;53.90
27848;DHT22;15212;48.830;8.730;2022-07-19T08:33:48;30.90;53.40
27848;DHT22;15212;48.830;8.730;2022-07-19T08:36:16;30.80;54.10
27848;DHT22;15212;48.830;8.730;2022-07-19T08:38:44;30.80;53.90
27848;DHT22;15212;48.830;8.730;2022-07-19T08:41:14;30.90;54.20
27848;DHT22;15212;48.830;8.730;2022-07-19T08:43:43;30.90;53.50
27848;DHT22;15212;48.830;8.730;2022-07-19T08:46:12;30.90;54.50
27848;DHT22;15212;48.830;8.730;2022-07-19T08:48:41;30.90;52.80
27848;DHT22;15212;48.830;8.730;2022-07-19T08:51:09;30.80;53.10
27848;DHT22;15212;48.830;8.730;2022-07-19T08:53:38;30.80;53.60
27848;DHT22;15212;48.830;8.730;2022-07-19T08:56:07;30.90;53.40
27848;DHT22;15212;48.830;8.730;2022-07-19T08:58:53;31.00;52.60
27848;DHT22;15212;48.830;8.730;2022-07-19T09:01:22;31.10;52.80
27848;DHT22;15212;48.830;8.730;2022-07-19T09:04:11;31.10;52.30
27848;DHT22;15212;48.830;8.730;2022-07-19T09:06:43;31.10;52.60
27848;DHT22;15212;48.830;8.730;2022-07-19T09:09:16;31.30;53.50
27848;DHT22;15212;48.830;8.730;2022-07-19T09:11:47;31.40;52.10
27848;DHT22;15212;48.830;8.730;2022-07-19T09:14:30;31.40;52.10
27848;DHT22;15212;48.830;8.730;2022-07-19T09:17:09;31.30;52.10
27848;DHT22;15212;48.830;8.730;2022-07-19T09:19:42;31.40;52.80
27848;DHT22;15212;48.830;8.730;2022-07-19T09:22:16;31.60;53.00
27848;DHT22;15212;48.830;8.730;2022-07-19T09:24:48;31.80;51.90
27848;DHT22;15212;48.830;8.730;2022-07-19T09:27:20;31.80;52.50
27848;DHT22;15212;48.830;8.730;2022-07-19T09:29:56;31.90;52.10
27848;DHT22;15212;48.830;8.730;2022-07-19T09:32:27;32.00;51.70
27848;DHT22;15212;48.830;8.730;2022-07-19T09:35:00;31.90;51.60
27848;DHT22;15212;48.830;8.730;2022-07-19T09:37:31;31.90;51.50
27848;DHT22;15212;48.830;8.730;2022-07-19T09:40:06;32.00;51.80
27848;DHT22;15212;48.830;8.730;2022-07-19T09:42:41;32.10;52.70
27848;DHT22;15212;48.830;8.730;2022-07-19T09:45:15;32.20;51.50
27848;DHT22;15212;48.830;8.730;2022-07-19T09:47:47;32.30;52.10
27848;DHT22;15212;48.830;8.730;2022-07-19T09:50:19;32.40;50.60
27848;DHT22;15212;48.830;8.730;2022-07-19T09:52:49;32.40;50.80
27848;DHT22;15212;48.830;8.730;2022-07-19T09:55:19;32.30;50.80
27848;DHT22;15212;48.830;8.730;2022-07-19T09:57:49;32.30;50.80
27848;DHT22;15212;48.830;8.730;2022-07-19T10:00:20;32.40;50.80
27848;DHT22;15212;48.830;8.730;2022-07-19T10:02:56;32.40;50.30
27848;DHT22;15212;48.830;8.730;2022-07-19T10:05:28;32.40;50.70
27848;DHT22;15212;48.830;8.730;2022-07-19T10:07:57;32.30;50.60
27848;DHT22;15212;48.830;8.730;2022-07-19T10:10:26;32.20;50.70
27848;DHT22;15212;48.830;8.730;2022-07-19T10:12:57;32.10;50.90
27848;DHT22;15212;48.830;8.730;2022-07-19T10:15:26;32.00;51.90
27848;DHT22;15212;48.830;8.730;2022-07-19T10:18:04;32.10;50.90
27848;DHT22;15212;48.830;8.730;2022-07-19T10:20:42;32.20;51.40
27848;DHT22;15212;48.830;8.730;2022-07-19T10:23:13;32.30;50.90
27848;DHT22;15212;48.830;8.730;2022-07-19T10:25:46;32.30;51.70
27848;DHT22;15212;48.830;8.730;2022-07-19T10:28:29;32.40;51.70
27848;DHT22;15212;48.830;8.730;2022-07-19T10:31:01;32.40;51.00
27848;DHT22;15212;48.830;8.730;2022-07-19T10:33:34;32.40;52.00
27848;DHT22;15212;48.830;8.730;2022-07-19T10:36:35;32.40;51.60
27848;DHT22;15212;48.830;8.730;2022-07-19T10:39:29;32.40;52.50
27848;DHT22;15212;48.830;8.730;2022-07-19T10:42:24;32.40;51.60
27848;DHT22;15212;48.830;8.730;2022-07-19T10:50:14;32.30;51.00
27848;DHT22;15212;48.830;8.730;2022-07-19T10:52:49;32.30;52.10
27848;DHT22;15212;48.830;8.730;2022-07-19T11:00:47;32.60;50.90
27848;DHT22;15212;48.830;8.730;2022-07-19T11:05:56;32.40;51.60
27848;DHT22;15212;48.830;8.730;2022-07-19T11:08:39;32.50;51.30
27848;DHT22;15212;48.830;8.730;2022-07-19T11:11:14;32.50;50.90
27848;DHT22;15212;48.830;8.730;2022-07-19T11:13:42;32.50;51.30
27848;DHT22;15212;48.830;8.730;2022-07-19T11:16:10;32.40;51.40
27848;DHT22;15212;48.830;8.730;2022-07-19T11:18:39;32.20;50.30
27848;DHT22;15212;48.830;8.730;2022-07-19T11:21:10;32.20;51.30
27848;DHT22;15212;48.830;8.730;2022-07-19T11:23:41;32.30;51.20
27848;DHT22;15212;48.830;8.730;2022-07-19T11:26:15;32.40;51.30
27848;DHT22;15212;48.830;8.730;2022-07-19T11:28:46;32.40;51.30
27848;DHT22;15212;48.830;8.730;2022-07-19T11:31:25;32.40;51.20
27848;DHT22;15212;48.830;8.730;2022-07-19T11:33:52;32.50;50.90
27848;DHT22;15212;48.830;8.730;2022-07-19T11:36:23;32.40;51.10
27848;DHT22;15212;48.830;8.730;2022-07-19T11:38:55;32.40;51.20
27848;DHT22;15212;48.830;8.730;2022-07-19T11:41:29;32.50;51.10
27848;DHT22;15212;48.830;8.730;2022-07-19T11:44:04;32.60;49.90
27848;DHT22;15212;48.830;8.730;2022-07-19T11:46:38;32.70;50.90
27848;DHT22;15212;48.830;8.730;2022-07-19T11:49:09;32.70;51.20
27848;DHT22;15212;48.830;8.730;2022-07-19T11:51:39;32.80;51.40
27848;DHT22;15212;48.830;8.730;2022-07-19T11:54:08;32.80;49.90
27848;DHT22;15212;48.830;8.730;2022-07-19T11:56:37;32.80;50.20
27848;DHT22;15212;48.830;8.730;2022-07-19T11:59:07;32.80;50.30
27848;DHT22;15212;48.830;8.730;2022-07-19T12:01:39;32.80;49.60
27848;DHT22;15212;48.830;8.730;2022-07-19T12:04:11;32.70;49.90
27848;DHT22;15212;48.830;8.730;2022-07-19T12:06:42;32.60;49.40
27848;DHT22;15212;48.830;8.730;2022-07-19T12:09:27;32.50;49.70
27848;DHT22;15212;48.830;8.730;2022-07-19T12:11:58;32.50;50.20
27848;DHT22;15212;48.830;8.730;2022-07-19T12:14:31;32.60;50.20
27848;DHT22;15212;48.830;8.730;2022-07-19T12:17:18;32.70;50.10
27848;DHT22;15212;48.830;8.730;2022-07-19T12:20:06;32.80;50.10
27848;DHT22;15212;48.830;8.730;2022-07-19T12:22:40;32.90;49.50
27848;DHT22;15212;48.830;8.730;2022-07-19T12:25:09;32.90;49.30
27848;DHT22;15212;48.830;8.730;2022-07-19T12:27:38;32.80;50.10
27848;DHT22;15212;48.830;8.730;2022-07-19T12:30:17;32.80;50.00
27848;DHT22;15212;48.830;8.730;2022-07-19T12:32:40;32.70;49.90
27848;DHT22;15212;48.830;8.730;2022-07-19T12:35:13;32.70;50.00
27848;DHT22;15212;48.830;8.730;2022-07-19T12:37:44;32.80;49.90
27848;DHT22;15212;48.830;8.730;2022-07-19T12:40:24;32.80;49.70
27848;DHT22;15212;48.830;8.730;2022-07-19T12:42:55;32.90;49.80
27848;DHT22;15212;48.830;8.730;2022-07-19T12:45:45;32.90;49.70
27848;DHT22;15212;48.830;8.730;2022-07-19T12:48:15;32.90;49.80
27848;DHT22;15212;48.830;8.730;2022-07-19T12:50:46;32.90;49.90
27848;DHT22;15212;48.830;8.730;2022-07-19T12:53:16;32.90;49.80
27848;DHT22;15212;48.830;8.730;2022-07-19T12:55:45;32.90;48.90
27848;DHT22;15212;48.830;8.730;2022-07-19T12:58:16;33.00;49.40
27848;DHT22;15212;48.830;8.730;2022-07-19T13:00:47;33.00;49.80
27848;DHT22;15212;48.830;8.730;2022-07-19T13:03:15;33.20;50.00
27848;DHT22;15212;48.830;8.730;2022-07-19T13:05:43;33.40;49.50
27848;DHT22;15212;48.830;8.730;2022-07-19T13:08:12;33.40;49.20
27848;DHT22;15212;48.830;8.730;2022-07-19T13:10:40;33.40;49.20
27848;DHT22;15212;48.830;8.730;2022-07-19T13:13:09;33.40;50.00
27848;DHT22;15212;48.830;8.730;2022-07-19T13:15:38;33.50;49.60
27848;DHT22;15212;48.830;8.730;2022-07-19T13:18:06;33.40;49.10
27848;DHT22;15212;48.830;8.730;2022-07-19T13:20:35;33.40;49.00
27848;DHT22;15212;48.830;8.730;2022-07-19T13:23:03;33.40;48.40
27848;DHT22;15212;48.830;8.730;2022-07-19T13:25:32;33.40;49.00
27848;DHT22;15212;48.830;8.730;2022-07-19T13:28:01;33.50;48.60
27848;DHT22;15212;48.830;8.730;2022-07-19T13:30:29;33.50;48.60
27848;DHT22;15212;48.830;8.730;2022-07-19T13:32:57;33.50;48.60
27848;DHT22;15212;48.830;8.730;2022-07-19T13:35:26;33.60;48.90
27848;DHT22;15212;48.830;8.730;2022-07-19T13:37:56;33.60;49.10
27848;DHT22;15212;48.830;8.730;2022-07-19T13:40:26;33.50;49.50
27848;DHT22;15212;48.830;8.730;2022-07-19T13:42:55;33.50;49.50
27848;DHT22;15212;48.830;8.730;2022-07-19T13:45:23;33.60;49.80
27848;DHT22;15212;48.830;8.730;2022-07-19T13:47:52;33.70;50.10
27848;DHT22;15212;48.830;8.730;2022-07-19T13:50:20;33.70;48.50
27848;DHT22;15212;48.830;8.730;2022-07-19T13:52:48;33.80;49.10
27848;DHT22;15212;48.830;8.730;2022-07-19T13:55:17;33.80;49.90
27848;DHT22;15212;48.830;8.730;2022-07-19T13:57:45;33.80;49.30
27848;DHT22;15212;48.830;8.730;2022-07-19T14:00:14;33.80;49.90
27848;DHT22;15212;48.830;8.730;2022-07-19T14:02:44;33.80;49.20
27848;DHT22;15212;48.830;8.730;2022-07-19T14:05:14;33.90;49.40
27848;DHT22;15212;48.830;8.730;2022-07-19T14:07:42;33.90;49.60
27848;DHT22;15212;48.830;8.730;2022-07-19T14:10:11;33.90;50.30
27848;DHT22;15212;48.830;8.730;2022-07-19T14:12:39;33.80;50.10
27848;DHT22;15212;48.830;8.730;2022-07-19T14:15:08;33.80;50.40
27848;DHT22;15212;48.830;8.730;2022-07-19T14:17:36;33.80;50.80
27848;DHT22;15212;48.830;8.730;2022-07-19T14:20:06;33.80;49.60
27848;DHT22;15212;48.830;8.730;2022-07-19T14:22:34;33.80;49.80
27848;DHT22;15212;48.830;8.730;2022-07-19T14:25:03;33.70;49.80
27848;DHT22;15212;48.830;8.730;2022-07-19T14:27:32;33.70;50.40
27848;DHT22;15212;48.830;8.730;2022-07-19T14:30:00;33.60;49.60
27848;DHT22;15212;48.830;8.730;2022-07-19T14:32:29;33.60;49.90
27848;DHT22;15212;48.830;8.730;2022-07-19T14:34:57;33.60;49.50
27848;DHT22;15212;48.830;8.730;2022-07-19T14:37:26;33.60;49.50
27848;DHT22;15212;48.830;8.730;2022-07-19T14:39:55;33.60;49.60
27848;DHT22;15212;48.830;8.730;2022-07-19T14:42:24;33.50;49.30
27848;DHT22;15212;48.830;8.730;2022-07-19T14:44:55;33.40;49.80
27848;DHT22;15212;48.830;8.730;2022-07-19T14:47:24;33.50;49.80
27848;DHT22;15212;48.830;8.730;2022-07-19T14:49:52;33.60;49.70
27848;DHT22;15212;48.830;8.730;2022-07-19T14:52:21;33.50;50.20
27848;DHT22;15212;48.830;8.730;2022-07-19T14:54:50;33.60;50.60
27848;DHT22;15212;48.830;8.730;2022-07-19T14:57:18;33.60;49.80
27848;DHT22;15212;48.830;8.730;2022-07-19T14:59:46;33.60;50.00
27848;DHT22;15212;48.830;8.730;2022-07-19T15:02:15;33.60;50.10
27848;DHT22;15212;48.830;8.730;2022-07-19T15:04:44;33.60;50.50
27848;DHT22;15212;48.830;8.730;2022-07-19T15:07:14;33.60;49.90
27848;DHT22;15212;48.830;8.730;2022-07-19T15:09:42;33.60;49.90
27848;DHT22;15212;48.830;8.730;2022-07-19T15:12:11;33.60;49.90
27848;DHT22;15212;48.830;8.730;2022-07-19T15:14:39;33.60;49.40
27848;DHT22;15212;48.830;8.730;2022-07-19T15:17:08;33.60;49.70
27848;DHT22;15212;48.830;8.730;2022-07-19T15:19:36;33.60;48.40
27848;DHT22;15212;48.830;8.730;2022-07-19T15:22:06;33.60;48.90
27848;DHT22;15212;48.830;8.730;2022-07-19T15:24:35;33.60;49.40
27848;DHT22;15212;48.830;8.730;2022-07-19T15:27:03;33.50;48.90
27848;DHT22;15212;48.830;8.730;2022-07-19T15:29:31;33.50;49.70
27848;DHT22;15212;48.830;8.730;2022-07-19T15:32:00;33.60;49.50
27848;DHT22;15212;48.830;8.730;2022-07-19T15:34:28;33.60;49.40
27848;DHT22;15212;48.830;8.730;2022-07-19T15:36:57;33.60;49.30
27848;DHT22;15212;48.830;8.730;2022-07-19T15:39:25;33.60;49.80
27848;DHT22;15212;48.830;8.730;2022-07-19T15:41:53;33.70;48.80
27848;DHT22;15212;48.830;8.730;2022-07-19T15:44:22;33.70;48.70
27848;DHT22;15212;48.830;8.730;2022-07-19T15:46:50;33.80;49.00
27848;DHT22;15212;48.830;8.730;2022-07-19T15:49:19;33.80;48.30
27848;DHT22;15212;48.830;8.730;2022-07-19T15:51:47;33.70;47.90
27848;DHT22;15212;48.830;8.730;2022-07-19T15:54:16;33.60;47.90
27848;DHT22;15212;48.830;8.730;2022-07-19T15:56:45;33.60;48.10
27848;DHT22;15212;48.830;8.730;2022-07-19T15:59:13;33.60;48.40